sensor_id;sensor_type;location;lat;lon;timestamp;pressure;altitude;pressure_sealevel;temperature;humidity
35224;BME280;21367;51.930;8.112;2023-02-20T00:02:25;101913.81;;;5.75;100.00
35224;BME280;21367;51.930;8.112;2023-02-20T00:07:30;101900.13;;;5.85;100.00
35224;BME280;21367;51.930;8.112;2023-02-20T00:12:33;101905.22;;;5.85;100.00
35224;BME280;21367;51.930;8.112;2023-02-20T00:17:40;101881.09;;;5.91;100.00
35224;BME280;21367;51.930;8.112;2023-02-20T00:22:47;101890.13;;;6.08;100.00
35224;BME280;21367;51.930;8.112;2023-02-20T00:27:50;101874.38;;;5.82;100.00
35224;BME280;21367;51.930;8.112;2023-02-20T00:32:58;101877.50;;;5.57;100.00
35224;BME280;21367;51.930;8.112;2023-02-20T00:38:02;101859.06;;;5.82;100.00
35224;BME280;21367;51.930;8.112;2023-02-20T00:43:07;101853.16;;;5.50;100.00
35224;BME280;21367;51.930;8.112;2023-02-20T00:48:14;101847.03;;;5.48;100.00
35224;BME280;21367;51.930;8.112;2023-02-20T00:53:17;101846.69;;;5.76;100.00
35224;BME280;21367;51.930;8.112;2023-02-20T00:58:21;101849.84;;;5.51;100.00
35224;BME280;21367;51.930;8.112;2023-02-20T01:03:27;101837.22;;;5.53;100.00
35224;BME280;21367;51.930;8.112;2023-02-20T01:08:31;101831.13;;;5.41;100.00
35224;BME280;21367;51.930;8.112;2023-02-20T01:13:37;101831.94;;;5.19;100.00
35224;BME280;21367;51.930;8.112;2023-02-20T01:18:43;101825.81;;;5.27;100.00
35224;BME280;21367;51.930;8.112;2023-02-20T01:23:47;101825.34;;;5.11;100.00
35224;BME280;21367;51.930;8.112;2023-02-20T01:28:50;101823.63;;;5.32;100.00
35224;BME280;21367;51.930;8.112;2023-02-20T01:33:57;101812.84;;;5.14;100.00
35224;BME280;21367;51.930;8.112;2023-02-20T01:39:00;101795.00;;;5.24;100.00
35224;BME280;21367;51.930;8.112;2023-02-20T01:44:04;101782.09;;;5.33;100.00
35224;BME280;21367;51.930;8.112;2023-02-20T01:49:14;101759.66;;;5.39;100.00
35224;BME280;21367;51.930;8.112;2023-02-20T01:54:21;101758.47;;;5.46;100.00
35224;BME280;21367;51.930;8.112;2023-02-20T01:59:28;101746.91;;;5.29;100.00
35224;BME280;21367;51.930;8.112;2023-02-20T02:04:38;101740.41;;;5.43;100.00
35224;BME280;21367;51.930;8.112;2023-02-20T02:09:48;101742.16;;;5.44;100.00
35224;BME280;21367;51.930;8.112;2023-02-20T02:14:53;101728.47;;;5.53;100.00
35224;BME280;21367;51.930;8.112;2023-02-20T02:25:46;101730.72;;;5.61;100.00
35224;BME280;21367;51.930;8.112;2023-02-20T02:31:20;101719.78;;;5.62;100.00
35224;BME280;21367;51.930;8.112;2023-02-20T02:36:53;101700.97;;;5.71;100.00
35224;BME280;21367;51.930;8.112;2023-02-20T02:42:03;101701.69;;;5.59;100.00
35224;BME280;21367;51.930;8.112;2023-02-20T02:47:12;101692.72;;;5.64;100.00
35224;BME280;21367;51.930;8.112;2023-02-20T02:52:23;101674.34;;;5.68;100.00
35224;BME280;21367;51.930;8.112;2023-02-20T02:57:48;101655.72;;;5.69;100.00
35224;BME280;21367;51.930;8.112;2023-02-20T03:02:56;101651.88;;;5.74;100.00
35224;BME280;21367;51.930;8.112;2023-02-20T03:08:06;101646.53;;;5.71;100.00
35224;BME280;21367;51.930;8.112;2023-02-20T03:13:14;101644.75;;;5.70;100.00
35224;BME280;21367;51.930;8.112;2023-02-20T03:18:28;101636.84;;;5.45;100.00
35224;BME280;21367;51.930;8.112;2023-02-20T03:23:40;101629.91;;;5.76;100.00
35224;BME280;21367;51.930;8.112;2023-02-20T03:28:48;101641.84;;;5.65;100.00
35224;BME280;21367;51.930;8.112;2023-02-20T03:33:56;101640.56;;;5.70;100.00
35224;BME280;21367;51.930;8.112;2023-02-20T03:39:20;101631.66;;;5.65;100.00
35224;BME280;21367;51.930;8.112;2023-02-20T03:44:37;101637.31;;;5.73;100.00
35224;BME280;21367;51.930;8.112;2023-02-20T03:49:43;101646.31;;;5.68;100.00
35224;BME280;21367;51.930;8.112;2023-02-20T03:54:53;101652.25;;;5.90;100.00
35224;BME280;21367;51.930;8.112;2023-02-20T04:00:02;101646.00;;;5.75;100.00
35224;BME280;21367;51.930;8.112;2023-02-20T04:05:18;101628.13;;;5.75;100.00
35224;BME280;21367;51.930;8.112;2023-02-20T04:10:29;101611.31;;;5.77;100.00
35224;BME280;21367;51.930;8.112;2023-02-20T04:15:39;101604.13;;;5.83;100.00
35224;BME280;21367;51.930;8.112;2023-02-20T04:20:44;101604.06;;;5.93;100.00
35224;BME280;21367;51.930;8.112;2023-02-20T04:26:02;101597.22;;;5.82;100.00
35224;BME280;21367;51.930;8.112;2023-02-20T04:31:12;101600.88;;;5.86;100.00
35224;BME280;21367;51.930;8.112;2023-02-20T04:36:18;101600.78;;;5.84;100.00
35224;BME280;21367;51.930;8.112;2023-02-20T04:41:26;101575.69;;;5.78;100.00
35224;BME280;21367;51.930;8.112;2023-02-20T04:46:29;101579.94;;;5.90;100.00
35224;BME280;21367;51.930;8.112;2023-02-20T04:51:33;101571.69;;;5.82;100.00
35224;BME280;21367;51.930;8.112;2023-02-20T04:56:40;101567.03;;;5.76;100.00
35224;BME280;21367;51.930;8.112;2023-02-20T05:01:44;101568.47;;;5.73;100.00
35224;BME280;21367;51.930;8.112;2023-02-20T05:06:52;101557.75;;;5.77;100.00
35224;BME280;21367;51.930;8.112;2023-02-20T05:11:59;101540.13;;;5.80;100.00
35224;BME280;21367;51.930;8.112;2023-02-20T05:17:03;101524.44;;;5.75;100.00
35224;BME280;21367;51.930;8.112;2023-02-20T05:22:08;101529.91;;;5.80;100.00
35224;BME280;21367;51.930;8.112;2023-02-20T05:27:25;101536.66;;;5.91;100.00
35224;BME280;21367;51.930;8.112;2023-02-20T05:32:30;101528.09;;;5.67;100.00
35224;BME280;21367;51.930;8.112;2023-02-20T05:37:33;101529.69;;;5.77;100.00
35224;BME280;21367;51.930;8.112;2023-02-20T05:42:40;101533.34;;;5.80;100.00
35224;BME280;21367;51.930;8.112;2023-02-20T05:47:43;101526.66;;;5.71;100.00
35224;BME280;21367;51.930;8.112;2023-02-20T05:52:47;101521.66;;;5.72;100.00
35224;BME280;21367;51.930;8.112;2023-02-20T05:57:53;101503.03;;;5.73;100.00
35224;BME280;21367;51.930;8.112;2023-02-20T06:02:57;101497.47;;;5.55;100.00
35224;BME280;21367;51.930;8.112;2023-02-20T06:08:02;101501.00;;;5.57;100.00
35224;BME280;21367;51.930;8.112;2023-02-20T06:13:08;101512.13;;;5.70;100.00
35224;BME280;21367;51.930;8.112;2023-02-20T06:18:14;101510.16;;;5.77;100.00
35224;BME280;21367;51.930;8.112;2023-02-20T06:23:17;101507.59;;;5.77;100.00
35224;BME280;21367;51.930;8.112;2023-02-20T06:28:23;101523.00;;;5.67;100.00
35224;BME280;21367;51.930;8.112;2023-02-20T06:33:27;101543.44;;;5.91;100.00
35224;BME280;21367;51.930;8.112;2023-02-20T06:38:30;101537.66;;;5.82;100.00
35224;BME280;21367;51.930;8.112;2023-02-20T06:43:37;101540.28;;;5.93;100.00
35224;BME280;21367;51.930;8.112;2023-02-20T06:48:43;101544.75;;;5.74;100.00
35224;BME280;21367;51.930;8.112;2023-02-20T06:53:47;101548.50;;;5.79;100.00
35224;BME280;21367;51.930;8.112;2023-02-20T06:58:55;101541.88;;;5.81;100.00
35224;BME280;21367;51.930;8.112;2023-02-20T07:03:59;101547.84;;;5.82;100.00
35224;BME280;21367;51.930;8.112;2023-02-20T07:09:03;101551.50;;;5.73;100.00
35224;BME280;21367;51.930;8.112;2023-02-20T07:14:09;101543.69;;;5.60;100.00
35224;BME280;21367;51.930;8.112;2023-02-20T07:19:13;101541.31;;;5.85;100.00
35224;BME280;21367;51.930;8.112;2023-02-20T07:24:18;101547.66;;;5.90;100.00
35224;BME280;21367;51.930;8.112;2023-02-20T07:29:24;101547.53;;;5.89;100.00
35224;BME280;21367;51.930;8.112;2023-02-20T07:34:28;101541.00;;;5.80;100.00
35224;BME280;21367;51.930;8.112;2023-02-20T07:39:32;101538.06;;;5.64;100.00
35224;BME280;21367;51.930;8.112;2023-02-20T07:44:38;101537.19;;;5.75;100.00
35224;BME280;21367;51.930;8.112;2023-02-20T07:49:45;101536.13;;;5.84;100.00
35224;BME280;21367;51.930;8.112;2023-02-20T07:54:48;101534.78;;;5.89;100.00
35224;BME280;21367;51.930;8.112;2023-02-20T07:59:54;101539.22;;;5.91;100.00
35224;BME280;21367;51.930;8.112;2023-02-20T08:04:58;101555.59;;;6.05;100.00
35224;BME280;21367;51.930;8.112;2023-02-20T08:10:02;101546.88;;;5.91;100.00
35224;BME280;21367;51.930;8.112;2023-02-20T08:15:10;101540.81;;;6.01;100.00
35224;BME280;21367;51.930;8.112;2023-02-20T08:20:17;101543.06;;;5.96;100.00
35224;BME280;21367;51.930;8.112;2023-02-20T08:25:22;101529.06;;;6.03;100.00
35224;BME280;21367;51.930;8.112;2023-02-20T08:30:29;101523.41;;;5.95;100.00
35224;BME280;21367;51.930;8.112;2023-02-20T08:35:32;101523.53;;;5.97;100.00
35224;BME280;21367;51.930;8.112;2023-02-20T08:40:36;101521.09;;;6.10;100.00
35224;BME280;21367;51.930;8.112;2023-02-20T08:45:43;101544.38;;;6.26;100.00
35224;BME280;21367;51.930;8.112;2023-02-20T08:50:46;101523.53;;;6.09;100.00
35224;BME280;21367;51.930;8.112;2023-02-20T08:55:49;101527.00;;;6.21;100.00
35224;BME280;21367;51.930;8.112;2023-02-20T09:00:56;101522.56;;;6.30;100.00
35224;BME280;21367;51.930;8.112;2023-02-20T09:05:59;101526.53;;;6.15;100.00
35224;BME280;21367;51.930;8.112;2023-02-20T09:11:03;101518.84;;;6.26;100.00
35224;BME280;21367;51.930;8.112;2023-02-20T09:16:10;101517.88;;;6.36;100.00
35224;BME280;21367;51.930;8.112;2023-02-20T09:21:17;101517.31;;;6.17;100.00
35224;BME280;21367;51.930;8.112;2023-02-20T09:26:22;101501.66;;;6.36;100.00
35224;BME280;21367;51.930;8.112;2023-02-20T09:31:28;101502.88;;;6.41;100.00
35224;BME280;21367;51.930;8.112;2023-02-20T09:36:32;101508.06;;;6.54;100.00
35224;BME280;21367;51.930;8.112;2023-02-20T09:41:48;101486.16;;;6.69;100.00
35224;BME280;21367;51.930;8.112;2023-02-20T09:47:05;101485.59;;;6.73;100.00
35224;BME280;21367;51.930;8.112;2023-02-20T09:52:16;101476.59;;;6.79;100.00
35224;BME280;21367;51.930;8.112;2023-02-20T09:57:23;101475.44;;;6.62;100.00
35224;BME280;21367;51.930;8.112;2023-02-20T10:02:33;101460.19;;;7.00;100.00
35224;BME280;21367;51.930;8.112;2023-02-20T10:07:39;101455.81;;;7.11;100.00
35224;BME280;21367;51.930;8.112;2023-02-20T10:12:51;101465.50;;;7.03;100.00
35224;BME280;21367;51.930;8.112;2023-02-20T10:18:10;101472.09;;;7.00;100.00
35224;BME280;21367;51.930;8.112;2023-02-20T10:23:30;101474.19;;;7.05;100.00
35224;BME280;21367;51.930;8.112;2023-02-20T10:28:39;101485.44;;;7.21;100.00
35224;BME280;21367;51.930;8.112;2023-02-20T10:33:49;101482.78;;;7.19;100.00
35224;BME280;21367;51.930;8.112;2023-02-20T10:38:57;101479.28;;;7.30;100.00
35224;BME280;21367;51.930;8.112;2023-02-20T10:44:14;101486.47;;;7.36;100.00
35224;BME280;21367;51.930;8.112;2023-02-20T10:49:32;101483.00;;;7.22;100.00
35224;BME280;21367;51.930;8.112;2023-02-20T10:54:37;101490.53;;;7.46;100.00
35224;BME280;21367;51.930;8.112;2023-02-20T10:59:48;101487.00;;;7.18;100.00
35224;BME280;21367;51.930;8.112;2023-02-20T11:04:59;101496.91;;;7.39;100.00
35224;BME280;21367;51.930;8.112;2023-02-20T11:10:05;101495.31;;;7.28;100.00
35224;BME280;21367;51.930;8.112;2023-02-20T11:15:11;101488.16;;;7.10;100.00
35224;BME280;21367;51.930;8.112;2023-02-20T11:20:44;101492.81;;;7.54;100.00
35224;BME280;21367;51.930;8.112;2023-02-20T11:25:49;101482.19;;;7.48;100.00
35224;BME280;21367;51.930;8.112;2023-02-20T11:31:00;101478.53;;;7.45;100.00
35224;BME280;21367;51.930;8.112;2023-02-20T11:36:14;101488.38;;;7.52;100.00
35224;BME280;21367;51.930;8.112;2023-02-20T11:41:24;101482.09;;;7.47;100.00
35224;BME280;21367;51.930;8.112;2023-02-20T11:46:29;101462.25;;;7.82;100.00
35224;BME280;21367;51.930;8.112;2023-02-20T11:51:38;101456.75;;;7.89;100.00
35224;BME280;21367;51.930;8.112;2023-02-20T11:56:59;101430.94;;;7.86;100.00
35224;BME280;21367;51.930;8.112;2023-02-20T12:02:25;101405.09;;;7.82;100.00
35224;BME280;21367;51.930;8.112;2023-02-20T12:07:36;101398.38;;;8.10;100.00
35224;BME280;21367;51.930;8.112;2023-02-20T12:12:40;101382.94;;;7.82;100.00
35224;BME280;21367;51.930;8.112;2023-02-20T12:23:26;101388.72;;;8.06;100.00
35224;BME280;21367;51.930;8.112;2023-02-20T12:28:41;101394.31;;;8.14;100.00
35224;BME280;21367;51.930;8.112;2023-02-20T12:34:03;101415.06;;;8.32;100.00
35224;BME280;21367;51.930;8.112;2023-02-20T12:39:22;101416.16;;;8.35;100.00
35224;BME280;21367;51.930;8.112;2023-02-20T12:44:47;101421.38;;;8.24;100.00
35224;BME280;21367;51.930;8.112;2023-02-20T12:50:03;101423.88;;;8.22;100.00
35224;BME280;21367;51.930;8.112;2023-02-20T12:55:21;101411.16;;;8.10;100.00
35224;BME280;21367;51.930;8.112;2023-02-20T13:00:31;101425.66;;;8.10;100.00
35224;BME280;21367;51.930;8.112;2023-02-20T13:05:37;101426.44;;;8.09;100.00
35224;BME280;21367;51.930;8.112;2023-02-20T13:10:51;101417.09;;;7.96;100.00
35224;BME280;21367;51.930;8.112;2023-02-20T13:15:58;101418.56;;;8.19;100.00
35224;BME280;21367;51.930;8.112;2023-02-20T13:21:09;101412.59;;;8.33;100.00
35224;BME280;21367;51.930;8.112;2023-02-20T13:26:45;101391.31;;;7.93;100.00
35224;BME280;21367;51.930;8.112;2023-02-20T13:31:53;101388.63;;;8.05;100.00
35224;BME280;21367;51.930;8.112;2023-02-20T13:36:57;101396.72;;;7.98;100.00
35224;BME280;21367;51.930;8.112;2023-02-20T13:42:24;101370.44;;;7.87;100.00
35224;BME280;21367;51.930;8.112;2023-02-20T13:47:37;101373.41;;;7.93;100.00
35224;BME280;21367;51.930;8.112;2023-02-20T13:52:41;101377.31;;;7.88;100.00
35224;BME280;21367;51.930;8.112;2023-02-20T13:57:50;101359.31;;;8.00;100.00
35224;BME280;21367;51.930;8.112;2023-02-20T14:02:55;101352.59;;;8.02;100.00
35224;BME280;21367;51.930;8.112;2023-02-20T14:07:58;101357.06;;;7.64;100.00
35224;BME280;21367;51.930;8.112;2023-02-20T14:13:10;101354.41;;;7.76;100.00
35224;BME280;21367;51.930;8.112;2023-02-20T14:18:17;101345.13;;;7.92;100.00
35224;BME280;21367;51.930;8.112;2023-02-20T14:23:27;101339.13;;;7.91;100.00
35224;BME280;21367;51.930;8.112;2023-02-20T14:28:43;101352.41;;;7.85;100.00
35224;BME280;21367;51.930;8.112;2023-02-20T14:33:50;101336.97;;;7.71;100.00
35224;BME280;21367;51.930;8.112;2023-02-20T14:39:07;101335.91;;;7.80;100.00
35224;BME280;21367;51.930;8.112;2023-02-20T14:44:16;101335.53;;;7.74;100.00
35224;BME280;21367;51.930;8.112;2023-02-20T14:49:24;101337.94;;;7.86;100.00
35224;BME280;21367;51.930;8.112;2023-02-20T14:54:28;101336.69;;;7.79;100.00
35224;BME280;21367;51.930;8.112;2023-02-20T14:59:36;101354.81;;;7.69;100.00
35224;BME280;21367;51.930;8.112;2023-02-20T15:04:46;101347.41;;;7.74;100.00
35224;BME280;21367;51.930;8.112;2023-02-20T15:09:53;101337.09;;;7.59;100.00
35224;BME280;21367;51.930;8.112;2023-02-20T15:15:03;101328.34;;;7.69;100.00
35224;BME280;21367;51.930;8.112;2023-02-20T15:20:18;101336.69;;;7.79;100.00
35224;BME280;21367;51.930;8.112;2023-02-20T15:25:29;101337.28;;;7.75;100.00
35224;BME280;21367;51.930;8.112;2023-02-20T15:31:14;101340.44;;;7.71;100.00
35224;BME280;21367;51.930;8.112;2023-02-20T15:36:24;101341.22;;;7.70;100.00
35224;BME280;21367;51.930;8.112;2023-02-20T15:41:28;101336.78;;;7.68;100.00
35224;BME280;21367;51.930;8.112;2023-02-20T15:46:35;101335.03;;;7.40;100.00
35224;BME280;21367;51.930;8.112;2023-02-20T15:51:40;101338.94;;;7.48;100.00
35224;BME280;21367;51.930;8.112;2023-02-20T15:56:44;101349.88;;;7.46;100.00
35224;BME280;21367;51.930;8.112;2023-02-20T16:01:51;101335.63;;;7.49;100.00
35224;BME280;21367;51.930;8.112;2023-02-20T16:06:55;101345.06;;;7.50;100.00
35224;BME280;21367;51.930;8.112;2023-02-20T16:11:58;101335.31;;;7.31;100.00
35224;BME280;21367;51.930;8.112;2023-02-20T16:17:04;101350.06;;;7.49;100.00
35224;BME280;21367;51.930;8.112;2023-02-20T16:22:09;101357.03;;;7.25;100.00
35224;BME280;21367;51.930;8.112;2023-02-20T16:27:18;101344.34;;;7.26;100.00
35224;BME280;21367;51.930;8.112;2023-02-20T16:32:26;101352.81;;;7.38;100.00
35224;BME280;21367;51.930;8.112;2023-02-20T16:37:31;101360.59;;;7.40;100.00
35224;BME280;21367;51.930;8.112;2023-02-20T16:42:36;101359.31;;;7.33;100.00
35224;BME280;21367;51.930;8.112;2023-02-20T16:47:47;101354.09;;;7.32;100.00
35224;BME280;21367;51.930;8.112;2023-02-20T16:52:53;101364.31;;;7.32;100.00
35224;BME280;21367;51.930;8.112;2023-02-20T16:57:57;101378.09;;;7.34;100.00
35224;BME280;21367;51.930;8.112;2023-02-20T17:03:04;101375.91;;;7.27;100.00
35224;BME280;21367;51.930;8.112;2023-02-20T17:08:08;101385.63;;;7.19;100.00
35224;BME280;21367;51.930;8.112;2023-02-20T17:13:12;101400.50;;;7.25;100.00
35224;BME280;21367;51.930;8.112;2023-02-20T17:18:19;101383.50;;;7.38;100.00
35224;BME280;21367;51.930;8.112;2023-02-20T17:23:22;101382.00;;;7.15;100.00
35224;BME280;21367;51.930;8.112;2023-02-20T17:28:26;101379.13;;;7.11;100.00
35224;BME280;21367;51.930;8.112;2023-02-20T17:33:33;101387.94;;;7.41;100.00
35224;BME280;21367;51.930;8.112;2023-02-20T17:38:40;101392.50;;;7.58;100.00
35224;BME280;21367;51.930;8.112;2023-02-20T17:43:44;101377.44;;;7.50;100.00
35224;BME280;21367;51.930;8.112;2023-02-20T17:48:51;101381.53;;;7.34;100.00
35224;BME280;21367;51.930;8.112;2023-02-20T17:53:55;101385.59;;;7.44;100.00
35224;BME280;21367;51.930;8.112;2023-02-20T17:58:59;101396.09;;;7.49;100.00
35224;BME280;21367;51.930;8.112;2023-02-20T18:04:06;101397.75;;;7.35;100.00
35224;BME280;21367;51.930;8.112;2023-02-20T18:09:11;101391.38;;;7.41;100.00
35224;BME280;21367;51.930;8.112;2023-02-20T18:14:16;101389.63;;;7.40;100.00
35224;BME280;21367;51.930;8.112;2023-02-20T18:19:23;101385.97;;;7.37;100.00
35224;BME280;21367;51.930;8.112;2023-02-20T18:24:27;101378.78;;;7.45;100.00
35224;BME280;21367;51.930;8.112;2023-02-20T18:29:32;101380.88;;;7.50;100.00
35224;BME280;21367;51.930;8.112;2023-02-20T18:34:38;101378.31;;;7.37;100.00
35224;BME280;21367;51.930;8.112;2023-02-20T18:39:42;101387.06;;;7.40;100.00
35224;BME280;21367;51.930;8.112;2023-02-20T18:44:46;101374.88;;;7.50;100.00
35224;BME280;21367;51.930;8.112;2023-02-20T18:49:54;101376.84;;;7.54;100.00
35224;BME280;21367;51.930;8.112;2023-02-20T18:54:57;101369.75;;;7.50;100.00
35224;BME280;21367;51.930;8.112;2023-02-20T19:00:01;101365.41;;;7.35;100.00
35224;BME280;21367;51.930;8.112;2023-02-20T19:05:07;101376.44;;;7.48;100.00
35224;BME280;21367;51.930;8.112;2023-02-20T19:10:13;101371.03;;;7.43;100.00
35224;BME280;21367;51.930;8.112;2023-02-20T19:15:18;101362.66;;;7.46;100.00
35224;BME280;21367;51.930;8.112;2023-02-20T19:20:27;101349.91;;;7.59;100.00
35224;BME280;21367;51.930;8.112;2023-02-20T19:25:31;101361.88;;;7.60;100.00
35224;BME280;21367;51.930;8.112;2023-02-20T19:30:37;101364.53;;;7.61;100.00
35224;BME280;21367;51.930;8.112;2023-02-20T19:35:43;101357.84;;;7.63;100.00
35224;BME280;21367;51.930;8.112;2023-02-20T19:40:48;101347.63;;;7.63;100.00
35224;BME280;21367;51.930;8.112;2023-02-20T19:45:51;101352.94;;;7.67;100.00
35224;BME280;21367;51.930;8.112;2023-02-20T19:50:58;101340.06;;;7.65;100.00
35224;BME280;21367;51.930;8.112;2023-02-20T19:56:02;101338.66;;;7.57;100.00
35224;BME280;21367;51.930;8.112;2023-02-20T20:01:06;101334.63;;;7.60;100.00
35224;BME280;21367;51.930;8.112;2023-02-20T20:06:15;101322.53;;;7.71;100.00
35224;BME280;21367;51.930;8.112;2023-02-20T20:11:19;101329.13;;;7.54;100.00
35224;BME280;21367;51.930;8.112;2023-02-20T20:16:23;101330.03;;;7.68;100.00
35224;BME280;21367;51.930;8.112;2023-02-20T20:21:32;101321.75;;;7.59;100.00
35224;BME280;21367;51.930;8.112;2023-02-20T20:26:36;101325.38;;;7.76;100.00
35224;BME280;21367;51.930;8.112;2023-02-20T20:31:40;101321.25;;;7.51;100.00
35224;BME280;21367;51.930;8.112;2023-02-20T20:36:47;101338.78;;;7.58;100.00
35224;BME280;21367;51.930;8.112;2023-02-20T20:41:50;101305.00;;;7.77;100.00
35224;BME280;21367;51.930;8.112;2023-02-20T20:46:54;101309.91;;;7.87;100.00
35224;BME280;21367;51.930;8.112;2023-02-20T20:52:00;101303.03;;;7.73;100.00
35224;BME280;21367;51.930;8.112;2023-02-20T20:57:04;101302.38;;;7.62;100.00
35224;BME280;21367;51.930;8.112;2023-02-20T21:02:09;101304.09;;;7.90;100.00
35224;BME280;21367;51.930;8.112;2023-02-20T21:07:15;101306.84;;;7.80;100.00
35224;BME280;21367;51.930;8.112;2023-02-20T21:12:20;101303.31;;;7.91;100.00
35224;BME280;21367;51.930;8.112;2023-02-20T21:17:23;101307.69;;;7.65;100.00
35224;BME280;21367;51.930;8.112;2023-02-20T21:22:29;101311.38;;;7.71;100.00
35224;BME280;21367;51.930;8.112;2023-02-20T21:27:33;101306.56;;;7.88;100.00
35224;BME280;21367;51.930;8.112;2023-02-20T21:32:37;101295.31;;;8.00;100.00
35224;BME280;21367;51.930;8.112;2023-02-20T21:37:44;101279.47;;;7.92;100.00
35224;BME280;21367;51.930;8.112;2023-02-20T21:42:49;101283.03;;;7.94;100.00
35224;BME280;21367;51.930;8.112;2023-02-20T21:48:13;101275.34;;;7.94;100.00
35224;BME280;21367;51.930;8.112;2023-02-20T21:53:20;101274.16;;;8.02;100.00
35224;BME280;21367;51.930;8.112;2023-02-20T21:58:24;101271.72;;;7.91;100.00
35224;BME280;21367;51.930;8.112;2023-02-20T22:03:40;101286.28;;;7.92;100.00
35224;BME280;21367;51.930;8.112;2023-02-20T22:08:44;101289.91;;;7.95;100.00
35224;BME280;21367;51.930;8.112;2023-02-20T22:14:00;101272.66;;;8.06;100.00
35224;BME280;21367;51.930;8.112;2023-02-20T22:19:16;101282.78;;;8.04;100.00
35224;BME280;21367;51.930;8.112;2023-02-20T22:24:36;101281.22;;;8.06;100.00
35224;BME280;21367;51.930;8.112;2023-02-20T22:29:52;101273.84;;;7.98;100.00
35224;BME280;21367;51.930;8.112;2023-02-20T22:35:10;101276.56;;;8.14;100.00
35224;BME280;21367;51.930;8.112;2023-02-20T22:40:30;101274.41;;;8.07;100.00
35224;BME280;21367;51.930;8.112;2023-02-20T22:45:47;101280.28;;;8.19;100.00
35224;BME280;21367;51.930;8.112;2023-02-20T22:51:03;101271.53;;;8.16;100.00
35224;BME280;21367;51.930;8.112;2023-02-20T22:56:23;101273.25;;;8.02;100.00
35224;BME280;21367;51.930;8.112;2023-02-20T23:01:39;101272.53;;;8.04;100.00
35224;BME280;21367;51.930;8.112;2023-02-20T23:06:55;101263.81;;;8.01;100.00
35224;BME280;21367;51.930;8.112;2023-02-20T23:12:14;101279.22;;;8.16;100.00
35224;BME280;21367;51.930;8.112;2023-02-20T23:17:30;101282.38;;;8.11;100.00
35224;BME280;21367;51.930;8.112;2023-02-20T23:22:47;101282.91;;;7.93;100.00
35224;BME280;21367;51.930;8.112;2023-02-20T23:28:05;101285.66;;;8.09;100.00
35224;BME280;21367;51.930;8.112;2023-02-20T23:33:21;101284.19;;;7.99;100.00
35224;BME280;21367;51.930;8.112;2023-02-20T23:38:37;101288.09;;;8.07;100.00
35224;BME280;21367;51.930;8.112;2023-02-20T23:43:56;101288.41;;;7.99;100.00
35224;BME280;21367;51.930;8.112;2023-02-20T23:49:12;101283.28;;;8.12;100.00
35224;BME280;21367;51.930;8.112;2023-02-20T23:54:28;101285.72;;;8.10;100.00
35224;BME280;21367;51.930;8.112;2023-02-20T23:59:47;101278.91;;;8.11;100.00
